KFLG/FLG METAR and TAF weather

Enter ICAO airport designator
Station Type Date Time Source
KFLG METAR 2022/01/29 08:57 UTC NOAA

KFLG 290857Z AUTO 10003KT 10SM CLR M02/M17 A3037 RMK AO2 SLP272 T10171167 56007


Station Type Date Time Source
KFLG Decoded METAR 2022/01/29 08:57 UTC NOAA

FLAGSTAFF PULLIAM AIRPORT, AZ, United States (KFLG) 35-08N 111-40W 2134M
Jan 29, 2022 - 03:57 AM EST / 2022.01.29 0857 UTC
Wind: from the E (100 degrees) at 3 MPH (3 KT):0
Visibility: 10 mile(s):0
Sky conditions: clear
Temperature: 28.9 F (-1.7 C)
Dew Point: 1.9 F (-16.7 C)
Relative Humidity: 30%
Pressure (altimeter): 30.37 in. Hg (1028 hPa)
Pressure tendency: 0.02 inches (0.7 hPa) lower than three hours ago
ob: KFLG 290857Z AUTO 10003KT 10SM CLR M02/M17 A3037 RMK AO2 SLP272 T10171167 56007
cycle: 9

Station Type Date Time Source
KFLG TAF 2022/01/29 06:33 UTC NOAA

TAF KFLG 290531Z 2906/3006 06006KT P6SM FEW250
FM291700 07011G18KT P6SM FEW150 SCT250
FM300100 08007KT P6SM SCT150 BKN200

Example: see airport list